createdAt,value
2023-04-20T00:01:10.120Z,3.81
2023-04-20T00:06:29.407Z,3.86
2023-04-20T00:11:49.139Z,3.84
2023-04-20T00:17:08.517Z,3.79
2023-04-20T00:22:28.081Z,3.84
2023-04-20T00:27:47.121Z,3.84
2023-04-20T00:33:06.611Z,3.92
2023-04-20T00:38:25.776Z,4.01
2023-04-20T00:43:44.969Z,4.01
2023-04-20T00:49:03.955Z,4.06
2023-04-20T00:54:23.652Z,3.92
2023-04-20T01:05:27.162Z,3.91
2023-04-20T01:10:46.893Z,3.81
2023-04-20T01:16:05.773Z,3.75
2023-04-20T01:21:25.495Z,3.77
2023-04-20T01:26:44.652Z,3.72
2023-04-20T01:32:03.872Z,3.77
2023-04-20T01:37:23.621Z,3.77
2023-04-20T01:42:42.898Z,3.77
2023-04-20T01:48:02.716Z,3.82
2023-04-20T01:53:21.584Z,3.86
2023-04-20T01:58:40.419Z,3.91
2023-04-20T02:04:00.149Z,3.91
2023-04-20T02:09:19.912Z,3.89
2023-04-20T02:14:38.775Z,3.88
2023-04-20T02:19:57.604Z,3.81
2023-04-20T02:25:17.296Z,3.72
2023-04-20T02:30:36.833Z,3.67
2023-04-20T02:35:55.776Z,3.51
2023-04-20T02:41:15.275Z,3.44
2023-04-20T02:46:34.528Z,3.33
2023-04-20T02:51:54.193Z,3.28
2023-04-20T02:57:13.787Z,3.27
2023-04-20T03:02:33.452Z,3.35
2023-04-20T03:07:53.081Z,3.43
2023-04-20T03:13:12.558Z,3.47
2023-04-20T03:18:32.238Z,3.54
2023-04-20T03:23:51.653Z,3.55
2023-04-20T03:29:10.853Z,3.58
2023-04-20T03:34:30.068Z,3.64
2023-04-20T03:39:49.154Z,3.64
2023-04-20T03:45:08.752Z,3.6
2023-04-20T03:50:27.877Z,3.58
2023-04-20T03:55:47.098Z,3.54
2023-04-20T04:01:06.592Z,3.5
2023-04-20T04:06:26.237Z,3.44
2023-04-20T04:11:45.771Z,3.38
2023-04-20T04:17:04.849Z,3.21
2023-04-20T04:22:23.834Z,3.06
2023-04-20T04:27:43.300Z,2.93
2023-04-20T04:33:03.116Z,2.9
2023-04-20T04:38:22.790Z,2.79
2023-04-20T04:43:41.797Z,2.73
2023-04-20T04:54:21.163Z,2.73
2023-04-20T05:05:00.341Z,2.71
2023-04-20T05:10:19.358Z,2.66
2023-04-20T05:15:38.396Z,2.71
2023-04-20T05:20:57.212Z,2.79
2023-04-20T05:26:16.604Z,2.97
2023-04-20T05:31:35.809Z,3.16
2023-04-20T05:36:54.985Z,3.31
2023-04-20T05:42:14.508Z,3.48
2023-04-20T05:47:34.045Z,3.7
2023-04-20T05:52:53.266Z,3.89
2023-04-20T05:58:12.736Z,4.15
2023-04-20T06:03:32.699Z,4.5
2023-04-20T06:14:11.663Z,5.11
2023-04-20T06:19:30.842Z,5.56
2023-04-20T06:24:50.297Z,5.99
2023-04-20T06:30:10.050Z,5.85
2023-04-20T06:35:29.611Z,6.02
2023-04-20T06:40:48.728Z,5.92
2023-04-20T06:46:08.006Z,6.77
2023-04-20T06:51:26.930Z,7.32
2023-04-20T06:56:47.367Z,7.77
2023-04-20T07:02:05.769Z,8.06
2023-04-20T07:07:24.864Z,8.3
2023-04-20T07:12:44.383Z,8.58
2023-04-20T07:23:22.460Z,9.13
2023-04-20T07:28:41.470Z,9.35
2023-04-20T07:34:00.317Z,9.54
2023-04-20T07:39:20.073Z,9.71
2023-04-20T07:44:39.014Z,9.67
2023-04-20T07:55:17.090Z,9.57
2023-04-20T08:00:36.382Z,10.14
2023-04-20T08:05:56.142Z,10.42
2023-04-20T08:11:15.358Z,10.64
2023-04-20T08:16:34.408Z,10.78
2023-04-20T08:21:53.202Z,10.95
2023-04-20T08:27:12.343Z,11.12
2023-04-20T08:37:50.278Z,11.09
2023-04-20T08:43:09.441Z,10.62
2023-04-20T08:48:28.627Z,10.65
2023-04-20T08:53:47.931Z,11.03
2023-04-20T08:59:07.365Z,10.82
2023-04-20T09:04:27.721Z,10.34
2023-04-20T09:09:46.621Z,10.66
2023-04-20T09:15:05.401Z,11.03
2023-04-20T09:20:25.078Z,10.86
2023-04-20T09:25:44.728Z,10.8
2023-04-20T09:36:22.529Z,11.18
2023-04-20T09:47:00.540Z,11.87
2023-04-20T09:52:19.471Z,11.93
2023-04-20T09:57:38.523Z,11.59
2023-04-20T10:02:57.816Z,11.43
2023-04-20T10:08:16.732Z,11.46
2023-04-20T10:13:35.550Z,11.5
2023-04-20T10:18:55.387Z,11.69
2023-04-20T10:24:15.264Z,11.85
2023-04-20T10:29:35.088Z,11.67
2023-04-20T10:34:52.874Z,11.74
2023-04-20T10:40:11.915Z,11.73
2023-04-20T10:45:31.481Z,11.6
2023-04-20T10:50:49.731Z,11.64
2023-04-20T11:01:28.736Z,11.44
2023-04-20T11:12:06.988Z,11.56
2023-04-20T11:17:25.855Z,11.61
2023-04-20T11:22:45.344Z,11.56
2023-04-20T11:28:04.826Z,11.57
2023-04-20T11:33:24.596Z,11.69
2023-04-20T11:38:43.748Z,11.61
2023-04-20T11:44:03.436Z,11.43
2023-04-20T11:49:23.057Z,11.37
2023-04-20T12:00:00.351Z,11.53
2023-04-20T12:05:19.794Z,11.59
2023-04-20T12:10:39.152Z,11.64
2023-04-20T12:15:58.609Z,11.57
2023-04-20T12:21:17.531Z,11.53
2023-04-20T12:26:38.589Z,11.29
2023-04-20T12:31:55.908Z,10.99
2023-04-20T12:42:34.026Z,10.4
2023-04-20T12:47:54.868Z,10.27
2023-04-20T12:53:12.232Z,10.18
2023-04-20T12:58:31.693Z,10.1
2023-04-20T13:03:51.174Z,10
2023-04-20T13:09:19.179Z,9.83
2023-04-20T13:19:47.937Z,9.67
2023-04-20T13:30:26.552Z,9.51
2023-04-20T13:35:45.491Z,9.42
2023-04-20T13:41:04.406Z,9.43
2023-04-20T13:46:23.595Z,9.43
2023-04-20T13:51:42.840Z,9.46
2023-04-20T13:57:01.647Z,9.49
2023-04-20T14:02:20.733Z,9.57
2023-04-20T14:07:39.987Z,9.53
2023-04-20T14:12:58.884Z,9.56
2023-04-20T14:18:17.627Z,9.71
2023-04-20T14:23:36.937Z,9.93
2023-04-20T14:28:56.792Z,9.95
2023-04-20T14:34:16.070Z,10.02
2023-04-20T14:39:34.933Z,10.05
2023-04-20T14:44:54.251Z,10.02
2023-04-20T14:50:13.632Z,9.97
2023-04-20T14:55:33.298Z,9.81
2023-04-20T15:00:52.454Z,9.66
2023-04-20T15:06:11.879Z,9.56
2023-04-20T15:11:31.491Z,9.43
2023-04-20T15:16:50.416Z,9.43
2023-04-20T15:22:09.900Z,9.35
2023-04-20T15:27:28.756Z,9.3
2023-04-20T15:32:48.219Z,9.18
2023-04-20T15:43:26.696Z,9.08
2023-04-20T15:48:45.005Z,8.97
2023-04-20T15:54:04.280Z,8.96
2023-04-20T15:59:23.960Z,8.95
2023-04-20T16:04:43.132Z,8.91
2023-04-20T16:10:02.291Z,8.82
2023-04-20T16:15:21.365Z,8.81
2023-04-20T16:20:41.411Z,8.78
2023-04-20T16:25:59.510Z,8.72
2023-04-20T16:31:19.242Z,8.71
2023-04-20T16:36:38.302Z,8.64
2023-04-20T16:41:57.385Z,8.58
2023-04-20T16:47:16.457Z,8.51
2023-04-20T16:52:36.040Z,8.47
2023-04-20T16:57:55.095Z,8.45
2023-04-20T17:03:14.494Z,8.38
2023-04-20T17:08:34.148Z,8.35
2023-04-20T17:13:53.730Z,8.33
2023-04-20T17:19:13.417Z,8.31
2023-04-20T17:24:33.751Z,8.3
2023-04-20T17:35:13.089Z,8.3
2023-04-20T17:40:32.033Z,8.28
2023-04-20T17:45:51.127Z,8.28
2023-04-20T17:51:10.494Z,8.3
2023-04-20T17:56:29.750Z,8.26
2023-04-20T18:07:07.825Z,8.2
2023-04-20T18:17:46.132Z,8.2
2023-04-20T18:23:05.838Z,8.2
2023-04-20T18:28:25.409Z,8.2
2023-04-20T18:33:44.203Z,8.17
2023-04-20T18:39:03.820Z,8.17
2023-04-20T18:50:08.329Z,8.14
2023-04-20T18:55:27.887Z,8.1
2023-04-20T19:00:46.763Z,8.06
2023-04-20T19:06:05.982Z,8.01
2023-04-20T19:11:25.093Z,7.96
2023-04-20T19:22:03.516Z,7.96
2023-04-20T19:27:22.636Z,7.98
2023-04-20T19:38:01.440Z,7.91
2023-04-20T19:43:20.435Z,7.9
2023-04-20T19:48:39.509Z,7.87
2023-04-20T19:53:58.594Z,7.87
2023-04-20T19:59:17.998Z,7.84
2023-04-20T20:04:37.294Z,7.84
2023-04-20T20:09:56.869Z,7.83
2023-04-20T20:15:15.643Z,7.83
2023-04-20T20:20:35.257Z,7.82
2023-04-20T20:25:54.444Z,7.77
2023-04-20T20:31:13.523Z,7.76
2023-04-20T20:36:32.494Z,7.74
2023-04-20T20:41:52.042Z,7.73
2023-04-20T20:47:11.227Z,7.7
2023-04-20T20:52:30.622Z,7.73
2023-04-20T20:57:50.188Z,7.72
2023-04-20T21:03:09.993Z,7.73
2023-04-20T21:08:28.078Z,7.7
2023-04-20T21:13:47.173Z,7.72
2023-04-20T21:19:06.394Z,7.69
2023-04-20T21:24:25.978Z,7.66
2023-04-20T21:29:45.415Z,7.66
2023-04-20T21:40:24.220Z,7.62
2023-04-20T21:45:43.345Z,7.59
2023-04-20T21:51:02.278Z,7.59
2023-04-20T21:56:21.959Z,7.62
2023-04-20T22:01:40.741Z,7.61
2023-04-20T22:07:00.226Z,7.56
2023-04-20T22:12:28.960Z,7.53
2023-04-20T22:17:38.926Z,7.52
2023-04-20T22:22:57.921Z,7.52
2023-04-20T22:33:36.706Z,7.51
2023-04-20T22:38:56.461Z,7.51
2023-04-20T22:49:35.087Z,7.51
2023-04-20T22:54:54.705Z,7.49
2023-04-20T23:00:14.205Z,7.51
2023-04-20T23:05:33.202Z,7.51
2023-04-20T23:10:52.343Z,7.49
2023-04-20T23:16:11.895Z,7.51
2023-04-20T23:21:31.196Z,7.51
2023-04-20T23:26:50.075Z,7.52
2023-04-20T23:32:09.499Z,7.51
2023-04-20T23:37:28.625Z,7.52
2023-04-20T23:42:48.164Z,7.52
2023-04-20T23:48:07.152Z,7.52
2023-04-20T23:53:25.995Z,7.46
